createdAt,value
2018-07-24T00:00:12.132Z,23.62
2018-07-24T00:00:49.546Z,23.67
2018-07-24T00:01:24.910Z,23.61
2018-07-24T00:02:00.349Z,23.61
2018-07-24T00:02:35.706Z,23.61
2018-07-24T00:03:11.095Z,23.60
2018-07-24T00:03:46.422Z,23.55
2018-07-24T00:04:21.936Z,23.43
2018-07-24T00:04:57.736Z,23.49
2018-07-24T00:05:33.198Z,23.47
2018-07-24T00:06:08.734Z,23.49
2018-07-24T00:06:44.032Z,23.45
2018-07-24T00:07:19.470Z,23.40
2018-07-24T00:07:54.801Z,23.39
2018-07-24T00:08:30.216Z,23.45
2018-07-24T00:09:05.762Z,23.43
2018-07-24T00:09:41.405Z,23.40
2018-07-24T00:10:16.876Z,23.27
2018-07-24T00:10:52.269Z,23.39
2018-07-24T00:11:27.814Z,23.27
2018-07-24T00:12:03.051Z,23.34
2018-07-24T00:12:38.616Z,23.40
2018-07-24T00:13:13.875Z,23.29
2018-07-24T00:13:49.403Z,23.27
2018-07-24T00:14:24.725Z,23.29
2018-07-24T00:15:00.054Z,23.27
2018-07-24T00:15:35.311Z,23.29
2018-07-24T00:16:10.806Z,23.27
2018-07-24T00:16:46.194Z,23.27
2018-07-24T00:17:21.707Z,23.20
2018-07-24T00:17:57.016Z,23.17
2018-07-24T00:18:32.775Z,23.15
2018-07-24T00:19:08.149Z,23.15
2018-07-24T00:19:43.574Z,23.05
2018-07-24T00:20:19.164Z,23.01
2018-07-24T00:20:54.486Z,23.17
2018-07-24T00:21:30.025Z,23.04
2018-07-24T00:22:06.060Z,23.05
2018-07-24T00:22:41.358Z,23.02
2018-07-24T00:23:16.953Z,23.02
2018-07-24T00:23:52.466Z,22.99
2018-07-24T00:24:27.657Z,22.99
2018-07-24T00:25:03.326Z,22.96
2018-07-24T00:25:41.492Z,22.97
2018-07-24T00:26:15.374Z,22.97
2018-07-24T00:26:50.671Z,22.97
2018-07-24T00:27:26.265Z,22.99
2018-07-24T00:28:01.605Z,22.94
2018-07-24T00:28:36.998Z,23.02
2018-07-24T00:29:12.495Z,22.92
2018-07-24T00:29:47.727Z,23.01
2018-07-24T00:30:23.254Z,22.92
2018-07-24T00:30:58.776Z,22.92
2018-07-24T00:31:34.219Z,22.89
2018-07-24T00:32:09.682Z,22.94
2018-07-24T00:32:45.049Z,22.94
2018-07-24T00:33:20.550Z,22.84
2018-07-24T00:33:55.990Z,22.97
2018-07-24T00:34:31.294Z,22.92
2018-07-24T00:35:06.760Z,22.87
2018-07-24T00:35:42.061Z,22.96
2018-07-24T00:36:17.312Z,22.92
2018-07-24T00:36:52.539Z,22.97
2018-07-24T00:37:27.900Z,22.94
2018-07-24T00:38:03.133Z,22.96
2018-07-24T00:38:38.650Z,22.99
2018-07-24T00:39:13.774Z,22.97
2018-07-24T00:39:49.200Z,23.01
2018-07-24T00:40:24.559Z,22.99
2018-07-24T00:41:00.095Z,22.99
2018-07-24T00:41:35.367Z,22.97
2018-07-24T00:42:10.680Z,22.96
2018-07-24T00:42:46.342Z,22.92
2018-07-24T00:43:21.558Z,22.78
2018-07-24T00:43:56.895Z,22.96
2018-07-24T00:44:32.392Z,22.93
2018-07-24T00:45:07.807Z,22.90
2018-07-24T00:45:42.856Z,22.87
2018-07-24T00:46:18.215Z,22.94
2018-07-24T00:46:53.780Z,22.93
2018-07-24T00:47:29.011Z,22.92
2018-07-24T00:48:04.257Z,22.83
2018-07-24T00:48:39.521Z,22.89
2018-07-24T00:49:14.982Z,22.84
2018-07-24T00:49:50.226Z,22.83
2018-07-24T00:50:25.693Z,22.77
2018-07-24T00:51:01.303Z,22.86
2018-07-24T00:51:36.862Z,22.89
2018-07-24T00:52:12.218Z,22.84
2018-07-24T00:52:47.733Z,22.84
2018-07-24T00:53:22.974Z,22.82
2018-07-24T00:53:58.100Z,22.83
2018-07-24T00:54:33.345Z,22.78
2018-07-24T00:55:08.783Z,22.75
2018-07-24T00:55:44.317Z,22.72
2018-07-24T00:56:19.748Z,22.74
2018-07-24T00:56:54.930Z,22.72
2018-07-24T00:57:30.424Z,22.78
2018-07-24T00:58:06.091Z,22.74
2018-07-24T00:58:41.642Z,22.75
2018-07-24T00:59:17.072Z,22.75
2018-07-24T00:59:52.353Z,22.72
2018-07-24T01:00:27.562Z,22.77
2018-07-24T01:01:03.121Z,22.68
2018-07-24T01:01:38.414Z,22.72
2018-07-24T01:02:13.767Z,22.71
2018-07-24T01:02:49.188Z,22.69
2018-07-24T01:03:24.442Z,22.64
2018-07-24T01:03:59.783Z,22.72
2018-07-24T01:04:35.040Z,22.77
2018-07-24T01:05:10.597Z,22.74
2018-07-24T01:05:46.341Z,22.69
2018-07-24T01:06:21.668Z,22.67
2018-07-24T01:06:56.933Z,22.67
2018-07-24T01:07:32.831Z,22.75
2018-07-24T01:08:08.497Z,22.69
2018-07-24T01:08:44.119Z,22.78
2018-07-24T01:09:19.560Z,22.74
2018-07-24T01:09:54.867Z,22.75
2018-07-24T01:10:30.545Z,22.77
2018-07-24T01:11:05.948Z,22.77
2018-07-24T01:11:41.219Z,22.75
2018-07-24T01:12:16.574Z,22.75
2018-07-24T01:12:52.331Z,22.75
2018-07-24T01:13:27.731Z,22.77
2018-07-24T01:14:03.064Z,22.74
2018-07-24T01:14:38.341Z,22.78
2018-07-24T01:15:13.790Z,22.82
2018-07-24T01:15:49.156Z,22.74
2018-07-24T01:16:24.531Z,22.75
2018-07-24T01:16:59.998Z,22.75
2018-07-24T01:17:35.848Z,22.82
2018-07-24T01:18:14.165Z,22.78
2018-07-24T01:18:49.619Z,22.74
2018-07-24T01:19:25.175Z,22.72
2018-07-24T01:20:00.397Z,22.72
2018-07-24T01:20:35.937Z,22.71
2018-07-24T01:21:11.223Z,22.64
2018-07-24T01:21:46.629Z,22.64
2018-07-24T01:22:21.656Z,22.59
2018-07-24T01:22:57.049Z,22.60
2018-07-24T01:23:32.295Z,22.54
2018-07-24T01:24:07.874Z,22.57
2018-07-24T01:24:43.217Z,22.52
2018-07-24T01:25:18.820Z,22.53
2018-07-24T01:25:54.272Z,22.52
2018-07-24T01:26:29.539Z,22.57
2018-07-24T01:27:05.132Z,22.54
2018-07-24T01:27:40.580Z,22.53
2018-07-24T01:28:15.964Z,22.50
2018-07-24T01:28:51.380Z,22.44
2018-07-24T01:29:26.975Z,22.52
2018-07-24T01:30:02.066Z,22.49
2018-07-24T01:30:37.694Z,22.53
2018-07-24T01:31:13.277Z,22.41
2018-07-24T01:31:48.631Z,22.46
2018-07-24T01:32:24.063Z,22.49
2018-07-24T01:32:59.753Z,22.39
2018-07-24T01:33:35.208Z,22.44
2018-07-24T01:34:10.401Z,22.39
2018-07-24T01:34:45.794Z,22.43
2018-07-24T01:35:20.971Z,22.41
2018-07-24T01:35:56.233Z,22.37
2018-07-24T01:36:31.698Z,22.49
2018-07-24T01:37:07.273Z,22.53
2018-07-24T01:37:42.505Z,22.41
2018-07-24T01:38:18.471Z,22.49
2018-07-24T01:38:53.585Z,22.52
2018-07-24T01:39:28.899Z,22.47
2018-07-24T01:40:04.345Z,22.43
2018-07-24T01:40:40.662Z,22.43
2018-07-24T01:41:15.943Z,22.38
2018-07-24T01:41:51.387Z,22.47
2018-07-24T01:42:26.859Z,22.35
2018-07-24T01:43:02.296Z,22.28
2018-07-24T01:43:37.855Z,22.44
2018-07-24T01:44:13.257Z,22.28
2018-07-24T01:44:48.633Z,22.34
2018-07-24T01:45:24.074Z,22.31
2018-07-24T01:45:59.392Z,22.28
2018-07-24T01:46:34.984Z,22.31
2018-07-24T01:47:10.317Z,22.37
2018-07-24T01:47:45.488Z,22.34
2018-07-24T01:48:21.215Z,22.25
2018-07-24T01:48:56.750Z,22.28
2018-07-24T01:49:32.076Z,22.27
2018-07-24T01:50:07.741Z,22.20
2018-07-24T01:50:42.965Z,22.25
2018-07-24T01:51:18.267Z,22.28
2018-07-24T01:51:53.847Z,22.29
2018-07-24T01:52:29.064Z,22.29
2018-07-24T01:53:04.410Z,22.29
2018-07-24T01:53:39.638Z,22.27
2018-07-24T01:54:15.223Z,22.23
2018-07-24T01:54:50.543Z,22.22
2018-07-24T01:55:26.287Z,22.27
2018-07-24T01:56:01.909Z,22.23
2018-07-24T01:56:37.373Z,22.25
2018-07-24T01:57:13.001Z,22.22
2018-07-24T01:57:48.225Z,22.19
2018-07-24T01:58:23.681Z,22.25
2018-07-24T01:58:59.288Z,22.22
2018-07-24T01:59:35.011Z,22.16
2018-07-24T02:00:10.558Z,22.16
2018-07-24T02:00:45.878Z,22.19
2018-07-24T02:01:21.412Z,22.17
2018-07-24T02:01:56.797Z,22.22
2018-07-24T02:02:32.325Z,22.14
2018-07-24T02:03:07.959Z,22.16
2018-07-24T02:03:43.407Z,22.20
2018-07-24T02:04:18.844Z,22.17
2018-07-24T02:04:54.426Z,22.19
2018-07-24T02:05:30.127Z,22.16
2018-07-24T02:06:05.768Z,22.10
2018-07-24T02:06:41.514Z,22.06
2018-07-24T02:07:16.964Z,22.01
2018-07-24T02:07:52.499Z,22.12
2018-07-24T02:08:27.763Z,22.10
2018-07-24T02:09:02.991Z,22.10
2018-07-24T02:09:38.546Z,22.13
2018-07-24T02:10:13.978Z,22.12
2018-07-24T02:10:50.260Z,22.13
2018-07-24T02:11:25.885Z,22.14
2018-07-24T02:12:01.209Z,22.09
2018-07-24T02:12:36.572Z,22.10
2018-07-24T02:13:11.583Z,22.12
2018-07-24T02:13:47.253Z,22.09
2018-07-24T02:14:22.563Z,22.12
2018-07-24T02:14:57.790Z,22.13
2018-07-24T02:15:33.094Z,22.10
2018-07-24T02:16:08.687Z,22.02
2018-07-24T02:16:44.285Z,22.06
2018-07-24T02:17:19.721Z,22.01
2018-07-24T02:17:55.034Z,22.02
2018-07-24T02:18:30.594Z,21.98
2018-07-24T02:19:05.850Z,21.97
2018-07-24T02:19:41.297Z,21.98
2018-07-24T02:20:16.659Z,21.97
2018-07-24T02:20:52.295Z,21.97
2018-07-24T02:21:28.049Z,21.97
2018-07-24T02:22:03.269Z,21.95
2018-07-24T02:22:38.709Z,21.88
2018-07-24T02:23:14.253Z,21.97
2018-07-24T02:23:49.826Z,21.99
2018-07-24T02:24:25.183Z,21.83
2018-07-24T02:25:00.440Z,21.94
2018-07-24T02:25:36.006Z,21.97
2018-07-24T02:26:11.427Z,21.94
2018-07-24T02:26:46.917Z,21.97
2018-07-24T02:27:22.024Z,21.94
2018-07-24T02:27:58.061Z,21.91
2018-07-24T02:28:33.666Z,21.81
2018-07-24T02:29:28.996Z,21.94
2018-07-24T02:30:04.432Z,21.88
2018-07-24T02:30:39.794Z,21.97
2018-07-24T02:31:15.062Z,21.88
2018-07-24T02:31:50.425Z,21.91
2018-07-24T02:32:25.734Z,21.92
2018-07-24T02:33:01.237Z,21.92
2018-07-24T02:33:36.482Z,21.92
2018-07-24T02:34:11.936Z,21.90
2018-07-24T02:34:47.380Z,21.91
2018-07-24T02:35:22.760Z,21.98
2018-07-24T02:35:57.865Z,21.97
2018-07-24T02:36:33.120Z,21.97
2018-07-24T02:37:08.553Z,21.95
2018-07-24T02:37:44.114Z,21.90
2018-07-24T02:38:19.540Z,21.88
2018-07-24T02:38:54.769Z,21.88
2018-07-24T02:39:30.213Z,21.91
2018-07-24T02:40:05.470Z,21.78
2018-07-24T02:40:40.806Z,21.83
2018-07-24T02:41:16.158Z,21.88
2018-07-24T02:41:51.822Z,21.91
2018-07-24T02:42:27.140Z,21.79
2018-07-24T02:43:02.469Z,21.83
2018-07-24T02:43:37.684Z,21.85
2018-07-24T02:44:13.030Z,21.82
2018-07-24T02:44:48.215Z,21.81
2018-07-24T02:45:23.654Z,21.78
2018-07-24T02:45:59.145Z,21.82
2018-07-24T02:46:34.833Z,21.81
2018-07-24T02:47:10.393Z,21.79
2018-07-24T02:47:45.944Z,21.75
2018-07-24T02:48:21.394Z,21.79
2018-07-24T02:48:56.632Z,21.66
2018-07-24T02:49:32.076Z,21.66
2018-07-24T02:50:07.321Z,21.69
2018-07-24T02:50:46.483Z,21.59
2018-07-24T02:51:22.050Z,21.63
2018-07-24T02:51:57.301Z,21.45
2018-07-24T02:52:32.732Z,21.45
2018-07-24T02:53:07.883Z,21.51
2018-07-24T02:53:43.327Z,21.50
2018-07-24T02:54:18.774Z,21.46
2018-07-24T02:54:54.426Z,21.44
2018-07-24T02:55:29.936Z,21.42
2018-07-24T02:56:05.213Z,21.48
2018-07-24T02:56:40.573Z,21.39
2018-07-24T02:57:15.977Z,21.36
2018-07-24T02:57:51.187Z,21.34
2018-07-24T02:58:26.627Z,21.36
2018-07-24T02:59:01.864Z,21.21
2018-07-24T02:59:37.276Z,21.34
2018-07-24T03:00:12.641Z,21.34
2018-07-24T03:00:48.173Z,21.30
2018-07-24T03:01:23.323Z,21.29
2018-07-24T03:01:58.973Z,21.24
2018-07-24T03:02:34.331Z,21.26
2018-07-24T03:03:09.844Z,21.23
2018-07-24T03:03:45.679Z,21.20
2018-07-24T03:04:21.183Z,21.27
2018-07-24T03:04:56.577Z,21.20
2018-07-24T03:05:32.131Z,21.20
2018-07-24T03:06:07.655Z,21.24
2018-07-24T03:06:43.061Z,21.19
2018-07-24T03:07:18.730Z,21.21
2018-07-24T03:07:54.214Z,21.24
2018-07-24T03:08:29.612Z,21.26
2018-07-24T03:09:05.398Z,21.24
2018-07-24T03:09:40.838Z,21.26
2018-07-24T03:10:16.349Z,21.20
2018-07-24T03:10:51.766Z,21.19
2018-07-24T03:11:27.674Z,21.23
2018-07-24T03:12:03.222Z,21.20
2018-07-24T03:12:38.749Z,21.19
2018-07-24T03:13:14.306Z,21.16
2018-07-24T03:13:49.913Z,21.26
2018-07-24T03:14:25.346Z,21.17
2018-07-24T03:15:01.629Z,21.11
2018-07-24T03:15:36.778Z,21.21
2018-07-24T03:16:12.099Z,21.24
2018-07-24T03:16:47.527Z,21.19
2018-07-24T03:17:22.947Z,21.21
2018-07-24T03:17:58.423Z,21.13
2018-07-24T03:18:34.071Z,21.09
2018-07-24T03:19:09.416Z,21.20
2018-07-24T03:19:44.832Z,21.13
2018-07-24T03:20:20.374Z,21.09
2018-07-24T03:20:55.608Z,21.19
2018-07-24T03:21:30.966Z,21.14
2018-07-24T03:22:06.229Z,21.08
2018-07-24T03:22:41.638Z,21.09
2018-07-24T03:23:17.309Z,21.09
2018-07-24T03:23:52.860Z,21.09
2018-07-24T03:24:28.232Z,21.06
2018-07-24T03:25:03.737Z,21.02
2018-07-24T03:25:39.314Z,20.99
2018-07-24T03:26:14.887Z,21.02
2018-07-24T03:26:50.077Z,21.01
2018-07-24T03:27:25.645Z,20.95
2018-07-24T03:28:00.957Z,21.02
2018-07-24T03:28:36.309Z,20.98
2018-07-24T03:29:11.517Z,20.99
2018-07-24T03:29:46.992Z,20.96
2018-07-24T03:30:22.214Z,20.98
2018-07-24T03:30:57.667Z,20.99
2018-07-24T03:31:33.301Z,20.96
2018-07-24T03:32:08.946Z,20.98
2018-07-24T03:32:44.114Z,20.98
2018-07-24T03:33:19.432Z,20.93
2018-07-24T03:33:54.831Z,20.91
2018-07-24T03:34:30.215Z,20.95
2018-07-24T03:35:06.003Z,20.95
2018-07-24T03:35:41.311Z,20.87
2018-07-24T03:36:16.891Z,20.95
2018-07-24T03:36:52.445Z,20.95
2018-07-24T03:37:27.989Z,20.93
2018-07-24T03:38:03.317Z,20.93
2018-07-24T03:38:39.000Z,20.87
2018-07-24T03:39:14.951Z,20.80
2018-07-24T03:39:50.291Z,20.93
2018-07-24T03:40:25.883Z,20.91
2018-07-24T03:41:01.241Z,20.76
2018-07-24T03:41:36.870Z,20.77
2018-07-24T03:42:11.975Z,20.68
2018-07-24T03:42:47.464Z,20.71
2018-07-24T03:43:22.903Z,20.76
2018-07-24T03:43:58.449Z,20.74
2018-07-24T03:44:33.881Z,20.68
2018-07-24T03:45:09.674Z,20.68
2018-07-24T03:45:44.775Z,20.71
2018-07-24T03:46:20.110Z,20.64
2018-07-24T03:46:55.597Z,20.62
2018-07-24T03:47:31.031Z,20.58
2018-07-24T03:48:06.692Z,20.65
2018-07-24T03:48:41.919Z,20.59
2018-07-24T03:49:17.380Z,20.56
2018-07-24T03:49:53.016Z,20.58
2018-07-24T03:50:28.550Z,20.58
2018-07-24T03:51:03.984Z,20.51
2018-07-24T03:51:39.257Z,20.65
2018-07-24T03:52:14.880Z,20.61
2018-07-24T03:52:50.437Z,20.59
2018-07-24T03:53:26.115Z,20.47
2018-07-24T03:54:01.856Z,20.68
2018-07-24T03:54:37.219Z,20.50
2018-07-24T03:55:12.410Z,20.62
2018-07-24T03:55:47.771Z,20.61
2018-07-24T03:56:23.305Z,20.56
2018-07-24T03:56:58.718Z,20.51
2018-07-24T03:57:34.046Z,20.69
2018-07-24T03:58:09.489Z,20.51
2018-07-24T03:58:45.046Z,20.54
2018-07-24T03:59:20.406Z,20.66
2018-07-24T03:59:55.736Z,20.54
2018-07-24T04:00:31.290Z,20.53
2018-07-24T04:01:06.737Z,20.62
2018-07-24T04:01:42.068Z,20.58
2018-07-24T04:02:17.653Z,20.64
2018-07-24T04:02:52.946Z,20.68
2018-07-24T04:03:28.488Z,20.47
2018-07-24T04:04:03.831Z,20.54
2018-07-24T04:04:39.537Z,20.49
2018-07-24T04:05:16.073Z,20.68
2018-07-24T04:05:51.270Z,20.62
2018-07-24T04:06:27.130Z,20.59
2018-07-24T04:07:02.638Z,20.66
2018-07-24T04:07:37.998Z,20.58
2018-07-24T04:08:13.099Z,20.53
2018-07-24T04:08:48.730Z,20.62
2018-07-24T04:09:24.158Z,20.58
2018-07-24T04:09:59.418Z,20.51
2018-07-24T04:10:34.850Z,20.53
2018-07-24T04:11:10.203Z,20.62
2018-07-24T04:11:45.649Z,20.58
2018-07-24T04:12:21.087Z,20.47
2018-07-24T04:12:56.325Z,20.43
2018-07-24T04:13:31.634Z,20.49
2018-07-24T04:14:06.957Z,20.58
2018-07-24T04:14:42.299Z,20.56
2018-07-24T04:15:18.276Z,20.54
2018-07-24T04:15:54.258Z,20.56
2018-07-24T04:16:29.626Z,20.47
2018-07-24T04:17:05.105Z,20.50
2018-07-24T04:17:40.439Z,20.53
2018-07-24T04:18:16.099Z,20.42
2018-07-24T04:18:51.553Z,20.49
2018-07-24T04:19:26.901Z,20.42
2018-07-24T04:20:02.426Z,20.46
2018-07-24T04:20:38.057Z,20.46
2018-07-24T04:21:13.685Z,20.53
2018-07-24T04:21:49.282Z,20.50
2018-07-24T04:22:24.593Z,20.51
2018-07-24T04:22:59.741Z,20.43
2018-07-24T04:23:35.173Z,20.51
2018-07-24T04:24:10.720Z,20.46
2018-07-24T04:24:46.058Z,20.46
2018-07-24T04:25:21.406Z,20.47
2018-07-24T04:25:56.922Z,20.59
2018-07-24T04:26:32.400Z,20.46
2018-07-24T04:27:07.752Z,20.50
2018-07-24T04:27:43.070Z,20.56
2018-07-24T04:28:18.853Z,20.53
2018-07-24T04:28:54.699Z,20.56
2018-07-24T04:29:30.055Z,20.50
2018-07-24T04:30:05.573Z,20.50
2018-07-24T04:30:42.943Z,20.61
2018-07-24T04:31:18.066Z,20.62
2018-07-24T04:31:53.704Z,20.53
2018-07-24T04:32:29.127Z,20.64
2018-07-24T04:33:04.580Z,20.62
2018-07-24T04:33:39.945Z,20.58
2018-07-24T04:34:15.377Z,20.61
2018-07-24T04:34:50.844Z,20.65
2018-07-24T04:35:26.154Z,20.50
2018-07-24T04:36:01.467Z,20.53
2018-07-24T04:36:36.892Z,20.64
2018-07-24T04:37:12.126Z,20.54
2018-07-24T04:37:47.560Z,20.62
2018-07-24T04:38:23.272Z,20.65
2018-07-24T04:38:58.507Z,20.56
2018-07-24T04:39:33.671Z,20.61
2018-07-24T04:40:09.085Z,20.62
2018-07-24T04:40:45.494Z,20.61
2018-07-24T04:41:20.841Z,20.69
2018-07-24T04:41:56.563Z,20.61
2018-07-24T04:42:31.691Z,20.64
2018-07-24T04:43:06.921Z,20.69
2018-07-24T04:43:42.363Z,20.62
2018-07-24T04:44:17.701Z,20.66
2018-07-24T04:44:53.488Z,20.68
2018-07-24T04:45:28.737Z,20.74
2018-07-24T04:46:04.191Z,20.65
2018-07-24T04:46:39.813Z,20.76
2018-07-24T04:47:15.300Z,20.72
2018-07-24T04:47:50.648Z,20.81
2018-07-24T04:48:25.964Z,20.69
2018-07-24T04:49:01.304Z,20.65
2018-07-24T04:49:36.441Z,20.71
2018-07-24T04:50:12.016Z,20.65
2018-07-24T04:50:47.314Z,20.66
2018-07-24T04:51:22.973Z,20.74
2018-07-24T04:51:58.650Z,20.72
2018-07-24T04:52:34.091Z,20.74
2018-07-24T04:53:09.437Z,20.72
2018-07-24T04:53:44.786Z,20.86
2018-07-24T04:54:20.211Z,20.87
2018-07-24T04:54:55.459Z,20.81
2018-07-24T04:55:31.498Z,20.83
2018-07-24T04:56:07.031Z,20.84
2018-07-24T04:56:42.658Z,20.81
2018-07-24T04:57:18.071Z,20.80
2018-07-24T04:57:53.762Z,20.89
2018-07-24T04:58:29.491Z,20.87
2018-07-24T04:59:04.756Z,20.96
2018-07-24T04:59:40.935Z,20.90
2018-07-24T05:00:16.457Z,20.87
2018-07-24T05:00:51.925Z,20.81
2018-07-24T05:01:27.262Z,20.74
2018-07-24T05:02:02.941Z,20.84
2018-07-24T05:02:38.431Z,20.72
2018-07-24T05:03:13.768Z,20.86
2018-07-24T05:03:49.862Z,20.77
2018-07-24T05:04:25.740Z,20.83
2018-07-24T05:05:01.275Z,20.80
2018-07-24T05:05:36.423Z,20.84
2018-07-24T05:06:11.900Z,20.80
2018-07-24T05:06:46.925Z,20.86
2018-07-24T05:07:22.277Z,20.81
2018-07-24T05:07:57.499Z,20.95
2018-07-24T05:08:33.084Z,20.83
2018-07-24T05:09:08.563Z,20.91
2018-07-24T05:09:44.202Z,20.90
2018-07-24T05:10:19.515Z,21.01
2018-07-24T05:10:55.131Z,20.95
2018-07-24T05:11:30.576Z,20.93
2018-07-24T05:12:06.021Z,20.96
2018-07-24T05:12:42.493Z,20.98
2018-07-24T05:13:18.048Z,20.99
2018-07-24T05:13:54.018Z,21.05
2018-07-24T05:14:29.441Z,21.05
2018-07-24T05:15:04.684Z,21.13
2018-07-24T05:15:40.173Z,21.13
2018-07-24T05:16:15.402Z,21.11
2018-07-24T05:16:51.090Z,21.11
2018-07-24T05:17:26.495Z,21.09
2018-07-24T05:18:02.008Z,21.19
2018-07-24T05:18:37.561Z,21.16
2018-07-24T05:19:12.918Z,21.11
2018-07-24T05:19:48.330Z,21.17
2018-07-24T05:20:24.107Z,21.17
2018-07-24T05:20:59.435Z,21.11
2018-07-24T05:21:35.280Z,21.27
2018-07-24T05:22:10.802Z,21.34
2018-07-24T05:22:46.342Z,21.27
2018-07-24T05:23:21.579Z,21.23
2018-07-24T05:23:56.976Z,21.24
2018-07-24T05:24:32.067Z,21.35
2018-07-24T05:25:07.338Z,21.24
2018-07-24T05:25:42.752Z,21.35
2018-07-24T05:26:18.115Z,21.45
2018-07-24T05:26:53.689Z,21.38
2018-07-24T05:27:28.788Z,21.39
2018-07-24T05:28:03.888Z,21.38
2018-07-24T05:28:39.080Z,21.32
2018-07-24T05:29:14.674Z,21.39
2018-07-24T05:29:49.921Z,21.41
2018-07-24T05:30:25.188Z,21.50
2018-07-24T05:31:00.706Z,21.42
2018-07-24T05:31:36.170Z,21.41
2018-07-24T05:32:11.449Z,21.53
2018-07-24T05:32:46.954Z,21.45
2018-07-24T05:33:22.574Z,21.51
2018-07-24T05:33:58.204Z,21.51
2018-07-24T05:34:33.809Z,21.45
2018-07-24T05:35:08.998Z,21.59
2018-07-24T05:35:44.327Z,21.60
2018-07-24T05:36:19.429Z,21.61
2018-07-24T05:36:54.999Z,21.59
2018-07-24T05:37:30.123Z,21.60
2018-07-24T05:38:05.369Z,21.59
2018-07-24T05:38:40.739Z,21.63
2018-07-24T05:39:16.403Z,21.63
2018-07-24T05:39:51.873Z,21.66
2018-07-24T05:40:27.376Z,21.74
2018-07-24T05:41:02.726Z,21.69
2018-07-24T05:41:37.959Z,21.78
2018-07-24T05:42:13.346Z,21.82
2018-07-24T05:42:48.693Z,21.78
2018-07-24T05:43:24.204Z,21.97
2018-07-24T05:43:59.288Z,21.97
2018-07-24T05:44:35.412Z,21.99
2018-07-24T05:45:10.819Z,22.01
2018-07-24T05:45:46.242Z,22.02
2018-07-24T05:46:21.507Z,22.09
2018-07-24T05:46:56.874Z,22.16
2018-07-24T05:47:32.340Z,22.16
2018-07-24T05:48:07.700Z,22.14
2018-07-24T05:48:42.894Z,22.20
2018-07-24T05:49:18.209Z,22.20
2018-07-24T05:49:53.706Z,22.22
2018-07-24T05:50:29.108Z,22.17
2018-07-24T05:51:04.460Z,22.29
2018-07-24T05:51:39.887Z,22.34
2018-07-24T05:52:15.193Z,22.35
2018-07-24T05:52:51.075Z,22.35
2018-07-24T05:53:26.604Z,22.46
2018-07-24T05:54:02.180Z,22.46
2018-07-24T05:54:37.601Z,22.41
2018-07-24T05:55:12.881Z,22.43
2018-07-24T05:55:48.350Z,22.54
2018-07-24T05:56:23.875Z,22.52
2018-07-24T05:56:59.561Z,22.50
2018-07-24T05:57:34.825Z,22.60
2018-07-24T05:58:10.367Z,22.59
2018-07-24T05:58:45.920Z,22.52
2018-07-24T05:59:21.009Z,22.64
2018-07-24T05:59:56.369Z,22.71
2018-07-24T06:00:31.614Z,22.78
2018-07-24T06:01:06.953Z,22.80
2018-07-24T06:01:42.429Z,22.82
2018-07-24T06:02:17.685Z,22.90
2018-07-24T06:02:53.126Z,22.92
2018-07-24T06:03:28.449Z,22.96
2018-07-24T06:04:03.777Z,22.94
2018-07-24T06:04:39.106Z,23.04
2018-07-24T06:05:14.641Z,23.04
2018-07-24T06:05:50.084Z,23.05
2018-07-24T06:06:25.523Z,23.07
2018-07-24T06:07:01.141Z,23.09
2018-07-24T06:07:36.562Z,23.14
2018-07-24T06:08:11.942Z,23.15
2018-07-24T06:08:47.172Z,23.26
2018-07-24T06:09:22.823Z,23.35
2018-07-24T06:09:58.563Z,23.42
2018-07-24T06:10:33.919Z,23.42
2018-07-24T06:11:08.956Z,23.47
2018-07-24T06:11:44.473Z,23.60
2018-07-24T06:12:19.913Z,23.64
2018-07-24T06:12:56.164Z,23.67
2018-07-24T06:13:31.509Z,23.76
2018-07-24T06:14:06.839Z,23.76
2018-07-24T06:14:42.248Z,23.76
2018-07-24T06:15:17.338Z,23.85
2018-07-24T06:15:52.688Z,23.86
2018-07-24T06:16:28.219Z,23.87
2018-07-24T06:17:03.681Z,23.97
2018-07-24T06:17:39.642Z,24.02
2018-07-24T06:18:15.015Z,24.07
2018-07-24T06:18:50.044Z,24.14
2018-07-24T06:19:25.308Z,24.20
2018-07-24T06:20:00.945Z,24.23
2018-07-24T06:20:36.455Z,24.23
2018-07-24T06:21:11.839Z,24.31
2018-07-24T06:21:47.345Z,24.38
2018-07-24T06:22:22.856Z,24.38
2018-07-24T06:22:58.156Z,24.47
2018-07-24T06:23:33.517Z,24.53
2018-07-24T06:24:12.041Z,24.56
2018-07-24T06:24:48.475Z,24.56
2018-07-24T06:25:24.122Z,24.64
2018-07-24T06:26:00.393Z,24.83
2018-07-24T06:26:35.592Z,24.85
2018-07-24T06:29:12.083Z,25.02
2018-07-24T06:29:51.160Z,25.07
2018-07-24T06:33:05.624Z,25.47
2018-07-24T06:33:42.473Z,25.54
2018-07-24T06:36:56.798Z,25.94
2018-07-24T06:37:32.411Z,26.17
2018-07-24T06:38:07.747Z,26.24
2018-07-24T06:38:43.280Z,26.28
2018-07-24T06:39:19.532Z,26.37
2018-07-24T06:39:54.852Z,26.57
2018-07-24T06:40:30.264Z,26.61
2018-07-24T06:41:07.965Z,26.64
2018-07-24T06:41:43.469Z,26.68
2018-07-24T06:42:18.685Z,26.89
2018-07-24T06:42:54.196Z,26.98
2018-07-24T06:43:29.546Z,27.04
2018-07-24T06:44:04.981Z,27.01
2018-07-24T06:44:41.711Z,27.01
2018-07-24T06:45:17.043Z,27.04
2018-07-24T06:45:55.993Z,27.09
2018-07-24T06:46:33.240Z,27.19
2018-07-24T06:47:08.546Z,27.24
2018-07-24T06:47:43.973Z,27.32
2018-07-24T06:48:19.383Z,27.39
2018-07-24T06:48:56.631Z,27.43
2018-07-24T06:49:31.835Z,27.50
2018-07-24T06:50:07.158Z,27.58
2018-07-24T06:52:43.776Z,27.96
2018-07-24T06:53:19.097Z,28.06
2018-07-24T06:53:54.620Z,28.10
2018-07-24T06:54:29.927Z,28.14
2018-07-24T06:55:05.265Z,28.14
2018-07-24T06:58:20.866Z,28.40
2018-07-24T06:58:58.692Z,28.40
2018-07-24T06:59:35.636Z,28.40
2018-07-24T07:00:12.445Z,28.38
2018-07-24T07:00:49.591Z,28.53
2018-07-24T07:01:24.891Z,28.59
2018-07-24T07:02:02.158Z,28.60
2018-07-24T07:02:37.850Z,28.72
2018-07-24T07:03:15.817Z,28.75
2018-07-24T07:03:57.971Z,28.81
2018-07-24T07:04:36.479Z,29.00
2018-07-24T07:05:11.877Z,29.07
2018-07-24T07:05:46.974Z,29.11
2018-07-24T07:06:25.114Z,29.26
2018-07-24T07:07:02.780Z,29.33
2018-07-24T07:07:41.032Z,29.41
2018-07-24T07:08:19.548Z,29.53
2018-07-24T07:08:54.999Z,29.49
2018-07-24T07:09:30.042Z,29.40
2018-07-24T07:10:05.422Z,29.47
2018-07-24T07:10:40.773Z,29.50
2018-07-24T07:11:15.989Z,29.47
2018-07-24T07:11:55.456Z,29.52
2018-07-24T07:12:31.173Z,29.59
2018-07-24T07:13:06.640Z,29.62
2018-07-24T07:13:41.913Z,29.81
2018-07-24T07:14:17.593Z,30.08
2018-07-24T07:14:53.940Z,30.12
2018-07-24T07:15:29.876Z,30.14
2018-07-24T07:16:05.935Z,30.08
2018-07-24T07:16:41.298Z,30.08
2018-07-24T07:17:16.741Z,30.03
2018-07-24T07:17:52.336Z,30.08
2018-07-24T07:18:33.665Z,30.26
2018-07-24T07:19:09.406Z,30.43
2018-07-24T07:22:23.892Z,31.24
2018-07-24T07:22:59.227Z,31.48
2018-07-24T07:23:37.933Z,31.58
2018-07-24T07:24:13.418Z,31.67
2018-07-24T07:24:49.017Z,31.70
2018-07-24T07:25:24.404Z,31.70
2018-07-24T07:26:00.155Z,31.85
2018-07-24T07:26:38.524Z,32.05
2018-07-24T07:27:13.655Z,32.29
2018-07-24T07:27:52.645Z,32.42
2018-07-24T07:28:28.184Z,32.49
2018-07-24T07:29:03.795Z,32.73
2018-07-24T07:29:44.142Z,32.88
2018-07-24T07:30:19.765Z,33.13
2018-07-24T07:30:56.986Z,33.34
2018-07-24T07:31:35.072Z,33.45
2018-07-24T07:32:10.565Z,33.60
2018-07-24T07:32:46.103Z,33.64
2018-07-24T07:33:21.225Z,33.83
2018-07-24T07:33:56.810Z,34.11
2018-07-24T07:34:32.110Z,34.35
2018-07-24T07:35:09.750Z,34.60
2018-07-24T07:35:45.283Z,34.73
2018-07-24T07:36:20.686Z,34.73
2018-07-24T07:36:56.292Z,34.77
2018-07-24T07:37:31.696Z,35.03
2018-07-24T07:38:12.718Z,34.79
2018-07-24T07:38:48.734Z,34.74
2018-07-24T07:39:26.065Z,34.83
2018-07-24T07:40:04.938Z,34.98
2018-07-24T07:40:40.823Z,35.08
2018-07-24T07:41:18.653Z,35.33
2018-07-24T07:41:56.766Z,35.55
2018-07-24T07:42:32.127Z,35.73
2018-07-24T07:43:09.142Z,35.91
2018-07-24T07:43:44.547Z,36.07
2018-07-24T07:44:20.114Z,36.20
2018-07-24T07:44:55.466Z,36.03
2018-07-24T07:45:31.046Z,35.76
2018-07-24T07:46:12.406Z,35.82
2018-07-24T07:46:48.124Z,35.70
2018-07-24T07:47:26.217Z,35.52
2018-07-24T07:48:01.651Z,35.62
2018-07-24T07:48:40.283Z,35.84
2018-07-24T07:49:19.503Z,35.95
2018-07-24T07:49:56.423Z,35.88
2018-07-24T07:50:35.021Z,36.04
2018-07-24T07:51:10.317Z,35.89
2018-07-24T07:51:45.827Z,35.81
2018-07-24T07:52:21.594Z,35.76
2018-07-24T07:53:00.443Z,35.82
2018-07-24T07:53:35.710Z,35.85